Surface/Atmospheric History
02/08/2018 18:14  to  2/9/2018 18:14
Change End Date:
To complete the export process:
1) Select all of the data below
2) Copy the data to the clipboard
3) Open a word processor such as Notepad
4) Paste the data into the word processor
5) Save the file

Date/Time (MST), SfStat, SfTemp, PvtTemp, SubTemp, AirTemp, RH, Dewpoint, AvgWindSpeed, GustWindSpeed, WindDirection, PrecipType, PrecipIntenisity
02/09/2018 18:10, Ice Watch , 1.6 , , 24, -9, 76, -15, 9, 9, S, None, None
02/09/2018 18:00, Ice Watch , 2.3 , , 24, -9, 76, -14, 8, 9, S, None, None
02/09/2018 17:50, Ice Watch , 2.8 , , 24, -9, 75, -14, 9, 9, SW, None, None
02/09/2018 17:48, Ice Watch , 3 , , 24, -9, 75, -14, 7, 9, S, None, None
02/09/2018 17:40, Ice Watch , 3.7 , , 24, -7, 74, -14, 8, 9, S, None, None
02/09/2018 17:33, Ice Watch , 4.3 , , 24, -6, 73, -13, 7, 7, S, None, None
02/09/2018 17:30, Ice Watch , 4.5 , , 24, -6, 73, -12, 7, 7, S, None, None
02/09/2018 17:20, Ice Watch , 5.2 , , 24, -5, 72, -12, 6, 6, SW, None, None
02/09/2018 17:18, Ice Watch , 5.4 , , 24, -5, 71, -12, 6, 6, SW, None, None
02/09/2018 17:10, Ice Watch , 6.1 , , 24, -4, 70, -11, 4, 6, SW, None, None
02/09/2018 17:03, Ice Watch , 6.4 , , 24, -4, 69, -12, 4, 6, SW, None, None
02/09/2018 16:59, Ice Watch , 6.6 , , 24, -4, 68, -12, 6, 6, SW, None, None
02/09/2018 16:49, Ice Watch , 7.3 , , 24, -3, 67, -11, 4, 6, S, None, None
02/09/2018 16:48, Ice Watch , 7.5 , , 24, -3, 67, -11, 4, 6, S, None, None
02/09/2018 16:39, Ice Watch , 8.1 , , 24, -3, 67, -11, 6, 6, S, None, None
02/09/2018 16:33, Ice Watch , 8.4 , , 24, -3, 67, -11, 6, 6, S, None, None
02/09/2018 16:29, Ice Watch , 8.4 , , 24, -3, 67, -11, 4, 6, S, None, None
02/09/2018 16:19, Ice Watch , 9.1 , , 24, -3, 67, -11, 5, 7, S, None, None
02/09/2018 16:18, Ice Watch , 9.3 , , 24, -3, 67, -11, 6, 7, S, None, None
02/09/2018 16:09, Ice Watch , 9.5 , , 24, -3, 68, -11, 6, 7, S, None, None
02/09/2018 16:03, Ice Watch , 10 , , 24, -3, 68, -11, 6, 6, S, None, None
02/09/2018 15:59, Ice Watch , 10.2 , , 24, -3, 67, -11, 6, 6, S, None, None
02/09/2018 15:49, Ice Watch , 10.9 , , 24, -2, 66, -10, 6, 6, S, None, None
02/09/2018 15:48, Ice Watch , 10.9 , , 24, -2, 66, -10, 5, 6, S, None, None
02/09/2018 15:39, Ice Watch , 11.3 , , 24, -1, 66, -10, 4, 4, S, None, None
02/09/2018 15:33, Ice Watch , 11.5 , , 24, -1, 66, -10, 4, 5, S, None, None
02/09/2018 15:29, Ice Watch , 11.8 , , 24, -1, 66, -10, 4, 5, S, None, None
02/09/2018 15:19, Ice Watch , 12.2 , , 24, 0, 65, -9, 2, 4, S, None, None
02/09/2018 15:18, Ice Watch , 12.2 , , 24, 0, 65, -9, 2, 4, S, None, None
02/09/2018 15:09, Ice Watch , 12.2 , , 24, 1, 65, -8, 3, 4, S, None, None
02/09/2018 15:03, Ice Watch , 12.4 , , 24, 1, 65, -8, 2, 4, S, None, None
02/09/2018 14:59, Ice Watch , 12.4 , , 24, 1, 65, -8, 2, 4, S, None, None
02/09/2018 14:49, Ice Watch , 12.7 , , 24, 0, 66, -9, 4, 6, S, None, None
02/09/2018 14:48, Ice Watch , 12.7 , , 24, -1, 66, -9, 4, 6, S, None, None
02/09/2018 14:39, Ice Watch , 13.1 , , 24, 0, 66, -9, 6, 6, S, None, None
02/09/2018 14:33, Ice Watch , 13.3 , , 25, 0, 66, -9, 6, 6, S, None, None
02/09/2018 14:29, Ice Watch , 13.3 , , 24, 0, 66, -9, 6, 6, S, None, None
02/09/2018 14:18, Ice Watch , 13.3 , , 25, 1, 66, -8, 6, 6, S, None, None
02/09/2018 14:18, Ice Watch , 13.3 , , 24, 1, 66, -8, 5, 6, S, None, None
02/09/2018 14:08, Ice Watch , 13.1 , , 25, 1, 66, -8, 4, 7, S, None, None
02/09/2018 14:03, Ice Watch , 13.1 , , 25, 0, 66, -9, 6, 7, S, None, None
02/09/2018 13:58, Ice Watch , 13.1 , , 25, 0, 66, -9, 6, 7, S, None, None
02/09/2018 13:48, Ice Watch , 13.3 , , 25, 0, 64, -9, 6, 7, S, None, None
02/09/2018 13:48, Ice Watch , 13.3 , , 25, 0, 64, -9, 6, 7, S, None, None
02/09/2018 13:38, Ice Watch , 13.1 , , 25, 1, 62, -9, 6, 7, S, None, None
02/09/2018 13:33, Ice Watch , 13.1 , , 25, 1, 60, -9, 6, 7, S, None, None
02/09/2018 13:28, Ice Watch , 13.3 , , 25, 3, 60, -8, 6, 6, S, None, None
02/09/2018 13:18, Ice Watch , 13.3 , , 25, 2, 61, -8, 3, 5, S, None, None
02/09/2018 13:18, Ice Watch , 13.3 , , 25, 2, 61, -8, 4, 5, S, None, None
02/09/2018 13:08, Ice Watch , 12.9 , , 25, 2, 60, -8, 4, 6, S, None, None
02/09/2018 13:03, Ice Watch , 12.9 , , 25, 2, 59, -9, 4, 6, S, None, None
02/09/2018 12:58, Ice Watch , 12.9 , , 25, 3, 58, -8, 4, 6, SW, None, None
02/09/2018 12:48, Ice Watch , 12.9 , , 25, 6, 56, -7, 4, 4, SW, None, None
02/09/2018 12:48, Ice Watch , 12.9 , , 25, 6, 57, -6, 4, 4, SW, None, None
02/09/2018 12:38, Ice Watch , 12.4 , , 25, 4, 57, -8, 3, 3, SW, None, None
02/09/2018 12:33, Ice Watch , 12.4 , , 25, 5, 58, -6, 2, 2, SW, None, None
02/09/2018 12:28, Ice Watch , 12.2 , , 25, 4, 60, -7, 1, 2, W, None, None
02/09/2018 12:18, Ice Watch , 11.7 , , 25, 2, 61, -8, 1, 2, W, None, None
02/09/2018 12:18, Ice Watch , 11.7 , , 25, 2, 61, -8, 1, 2, W, None, None
02/09/2018 12:08, Ice Watch , 10.9 , , 25, 3, 64, -6, 2, 4, SW, None, None
02/09/2018 12:03, Ice Watch , 10.4 , , 25, 1, 65, -7, 4, 5, SW, None, None
02/09/2018 11:58, Ice Watch , 10.2 , , 25, 1, 66, -8, 4, 6, SW, None, None
02/09/2018 11:48, Ice Watch , 9.5 , , 25, -3, 68, -10, 5, 7, SW, None, None
02/09/2018 11:48, Ice Watch , 9.5 , , 25, -3, 68, -10, 5, 7, S, None, None
02/09/2018 11:38, Ice Watch , 9.1 , , 25, -3, 68, -11, 7, 7, SW, None, None
02/09/2018 11:33, Ice Watch , 9 , , 25, -4, 68, -12, 7, 7, SW, None, None
02/09/2018 11:27, Ice Watch , 9 , , 25, -4, 67, -12, 7, 7, S, None, None
02/09/2018 11:18, Ice Watch , 9.3 , , 25, -4, 65, -12, 6, 7, S, None, None
02/09/2018 11:17, Ice Watch , 9.3 , , 25, -4, 65, -12, 6, 7, S, None, None
02/09/2018 11:07, Ice Watch , 9.3 , , 25, 1, 62, -9, 2, 4, S, None, None
02/09/2018 11:03, Ice Watch , 9.3 , , 25, 3, 64, -6, 2, 2, S, None, None
02/09/2018 10:57, Ice Watch , 9.1 , , 25, 2, 66, -6, 0, 2, SW, None, None
02/09/2018 10:48, Ice Watch , 8.4 , , 25, 0, 67, -8, 0, 1, SW, None, None
02/09/2018 10:47, Ice Watch , 8.4 , , 25, 0, 67, -8, 1, 1, SW, None, None
02/09/2018 10:37, Ice Watch , 7.9 , , 25, 0, 69, -8, 0, 1, SW, None, None
02/09/2018 10:33, Ice Watch , 7.9 , , 25, 1, 70, -7, 1, 1, SW, None, None
02/09/2018 10:27, Ice Watch , 7.9 , , 25, 1, 72, -6, 0, 1, SW, None, None
02/09/2018 10:18, Ice Watch , 7.3 , , 25, -1, 75, -7, 0, 1, SW, None, None
02/09/2018 10:17, Ice Watch , 7.3 , , 25, -1, 75, -7, 0, 1, NW, None, None
02/09/2018 10:07, Ice Watch , 7.2 , , 25, -3, 76, -8, 0, 0, NW, None, None
02/09/2018 10:03, Ice Watch , 7.3 , , 25, -3, 77, -9, 0, 0, NW, None, None
02/09/2018 09:57, Ice Watch , 7.3 , , 25, -3, 78, -8, 0, 1, NW, None, None
02/09/2018 09:48, Ice Watch , 7 , , 25, -4, 79, -8, 0, 1, NW, None, None
02/09/2018 09:47, Ice Watch , 7 , , 25, -4, 80, -8, 0, 1, W, None, None
02/09/2018 09:37, Ice Watch , 6.4 , , 25, -6, 80, -11, 2, 4, W, None, None
02/09/2018 09:33, Ice Watch , 6.3 , , 25, -7, 80, -11, 3, 5, W, None, None
02/09/2018 09:27, Ice Watch , 6.1 , , 25, -8, 80, -12, 4, 6, SW, None, None
02/09/2018 09:18, Ice Watch , 6.1 , , 25, -8, 81, -12, 7, 8, SW, None, None
02/09/2018 09:17, Ice Watch , 6.1 , , 25, -8, 81, -12, 7, 8, SW, None, None
02/09/2018 09:07, Ice Watch , 6.4 , , 25, -7, 81, -11, 6, 7, S, None, None
02/09/2018 09:03, Ice Watch , 6.4 , , 25, -7, 81, -11, 6, 6, S, None, None
02/09/2018 08:57, Ice Watch , 5.7 , , 25, -8, 81, -12, 6, 6, S, None, None
02/09/2018 08:48, Ice Watch , 5.4 , , 25, -8, 81, -12, 6, 6, S, None, None
02/09/2018 08:47, Ice Watch , 5.2 , , 25, -8, 81, -12, 4, 6, S, None, None
02/09/2018 08:37, Ice Watch , 4.8 , , 25, -7, 81, -11, 4, 6, S, None, None
02/09/2018 08:33, Ice Watch , 5.2 , , 25, -7, 81, -11, 5, 6, S, None, None
02/09/2018 08:27, Ice Watch , 5.2 , , 25, -9, 81, -13, 4, 4, S, None, None
02/09/2018 08:18, Ice Watch , 5.5 , , 25, -10, 81, -14, 3, 4, SW, None, None
02/09/2018 08:16, Ice Watch , 5.5 , , 25, -10, 81, -14, 3, 3, SW, None, None
02/09/2018 08:06, Ice Watch , 5.9 , , 25, -10, 81, -14, 3, 3, SW, None, None
02/09/2018 08:03, Ice Watch , 6.1 , , 25, -10, 81, -14, 3, 3, SW, None, None
02/09/2018 07:56, Ice Watch , 6.4 , , 25, -11, 81, -15, 2, 4, SW, None, None
02/09/2018 07:48, Ice Watch , 7 , , 25, -12, 81, -16, 4, 4, W, None, None
02/09/2018 07:46, Ice Watch , 7 , , 25, -12, 81, -16, 4, 4, W, None, None
02/09/2018 07:36, Ice Watch , 7.5 , , 25, -10, 81, -14, 3, 4, W, None, None
02/09/2018 07:33, Ice Watch , 7.7 , , 25, -9, 82, -13, 3, 4, SW, None, None
02/09/2018 07:26, Ice Watch , 8.2 , , 25, -7, 82, -11, 3, 4, W, None, None
02/09/2018 07:18, Ice Watch , 8.6 , , 25, -6, 82, -10, 2, 4, W, None, None
02/09/2018 07:16, Ice Watch , 8.6 , , 25, -7, 82, -11, 3, 4, NW, None, None
02/09/2018 07:06, Ice Watch , 9.3 , , 25, -7, 82, -11, 2, 3, NW, None, None
02/09/2018 07:03, Ice Watch , 9.3 , , 25, -7, 82, -11, 2, 3, NW, None, None
02/09/2018 06:56, Ice Watch , 9.7 , , 25, -7, 82, -11, 2, 5, NW, None, None
02/09/2018 06:48, Ice Watch , 10.2 , , 25, -6, 82, -10, 4, 6, NW, None, None
02/09/2018 06:46, Ice Watch , 10.4 , , 25, -6, 82, -10, 4, 6, NW, None, None
02/09/2018 06:36, Ice Watch , 11.1 , , 26, -5, 82, -9, 4, 6, NW, None, None
02/09/2018 06:33, Ice Watch , 11.3 , , 26, -4, 82, -8, 4, 7, NW, None, None
02/09/2018 06:26, Ice Watch , 11.7 , , 26, -4, 82, -8, 5, 7, NW, None, None
02/09/2018 06:18, Ice Watch , 12.2 , , 26, -4, 82, -8, 6, 7, NW, None, None
02/09/2018 06:16, Ice Watch , 12.2 , , 25, -4, 82, -8, 6, 7, NW, None, None
02/09/2018 06:06, Ice Watch , 12.9 , , 26, -3, 82, -7, 5, 7, NW, Yes,
02/09/2018 06:03, Ice Watch , 13.1 , , 26, -3, 82, -7, 6, 7, NW, None, None
02/09/2018 05:56, Ice Watch , 13.5 , , 26, -3, 82, -7, 6, 8, NW, Yes,
02/09/2018 05:48, Ice Watch , 14.2 , , 26, -3, 81, -7, 7, 9, NW, Yes,
02/09/2018 05:46, Ice Watch , 14.2 , , 26, -3, 81, -7, 6, 9, NW, Yes,
02/09/2018 05:36, Ice Watch , 15.3 , , 26, -3, 81, -7, 6, 9, NW, Yes,
02/09/2018 05:33, Ice Watch , 16 , , 26, -3, 81, -7, 7, 9, NW, Yes,
02/09/2018 05:26, Ice Watch , 16 , , 26, -3, 81, -7, 7, 9, NW, None, None
02/09/2018 05:18, Ice Watch , 16 , , 26, -3, 81, -7, 7, 9, NW, None, None
02/09/2018 05:15, Ice Watch , 16 , , 26, -3, 81, -7, 7, 9, NW, Yes,
02/09/2018 05:05, Ice Watch , 16 , , 26, -3, 81, -7, 6, 8, NW, None, None
02/09/2018 05:03, Ice Watch , 15.8 , , 26, -3, 81, -7, 6, 8, NW, Yes,
02/09/2018 04:55, Ice Watch , 15.8 , , 26, -3, 81, -7, 6, 7, NW, None, None
02/09/2018 04:48, Ice Watch , 15.8 , , 26, -3, 81, -7, 6, 9, NW, None, None
02/09/2018 04:45, Ice Watch , 15.8 , , 26, -3, 81, -7, 6, 10, NW, None, None
02/09/2018 04:35, Ice Watch , 15.8 , , 26, -3, 81, -7, 7, 11, NW, None, None
02/09/2018 04:33, Ice Watch , 15.8 , , 26, -3, 81, -7, 7, 11, NW, None, None
02/09/2018 04:25, Ice Watch , 15.8 , , 26, -3, 81, -7, 9, 11, NW, None, None
02/09/2018 04:18, Ice Watch , 15.8 , , 26, -3, 81, -7, 9, 11, NW, None, None
02/09/2018 04:15, Ice Watch , 15.8 , , 26, -3, 81, -7, 9, 11, NW, None, None
02/09/2018 04:05, Ice Watch , 15.8 , , 26, -3, 82, -7, 6, 9, NW, Yes,
02/09/2018 04:03, Ice Watch , 15.8 , , 26, -3, 82, -7, 6, 9, NW, None, None
02/09/2018 03:55, Ice Watch , 15.6 , , 26, -3, 82, -7, 7, 9, NW, None, None
02/09/2018 03:48, Ice Watch , 15.8 , , 26, -3, 82, -7, 4, 9, NW, Yes,
02/09/2018 03:45, Ice Watch , 15.8 , , 26, -3, 82, -7, 5, 9, NW, Yes,
02/09/2018 03:35, Ice Watch , 15.6 , , 26, -3, 82, -7, 7, 10, NW, None, None
02/09/2018 03:33, Ice Watch , 15.6 , , 26, -3, 82, -7, 7, 10, NW, None, None
02/09/2018 03:25, Ice Watch , 15.6 , , 26, -3, 82, -7, 8, 10, NW, Yes,
02/09/2018 03:18, Ice Watch , 15.6 , , 26, -2, 82, -7, 7, 9, NW, Yes,
02/09/2018 03:15, Ice Watch , 15.4 , , 26, -2, 82, -7, 7, 9, NW, Yes,
02/09/2018 03:05, Ice Watch , 15.4 , , 26, -2, 82, -6, 9, 11, NW, Yes,
02/09/2018 03:03, Ice Watch , 15.4 , , 26, -2, 82, -6, 9, 11, NW, Yes,
02/09/2018 02:55, Ice Watch , 15.3 , , 26, -2, 82, -6, 9, 11, NW, Yes,
02/09/2018 02:48, Ice Watch , 15.3 , , 26, -2, 82, -6, 7, 9, NW, Yes,
02/09/2018 02:45, Ice Watch , 15.3 , , 26, -2, 82, -6, 7, 9, NW, Yes,
02/09/2018 02:35, Ice Watch , 15.3 , , 26, -2, 82, -6, 7, 9, NW, Yes,
02/09/2018 02:33, Ice Watch , 15.3 , , 26, -2, 82, -6, 6, 9, NW, Yes,
02/09/2018 02:25, Ice Watch , 15.1 , , 26, -2, 82, -6, 7, 11, NW, Yes,
02/09/2018 02:18, Ice Watch , 15.1 , , 26, -2, 82, -6, 9, 11, NW, Yes,
02/09/2018 02:14, Ice Watch , 15.1 , , 26, -2, 82, -6, 9, 11, NW, Yes,
02/09/2018 02:04, Ice Watch , 15.1 , , 26, -2, 82, -6, 9, 12, NW, Yes,
02/09/2018 02:03, Ice Watch , 14.9 , , 26, -2, 82, -6, 10, 12, NW, Yes,
02/09/2018 01:54, Ice Watch , 14.9 , , 26, -2, 82, -6, 10, 12, NW, Yes,
02/09/2018 01:48, Ice Watch , 14.7 , , 26, -2, 82, -6, 9, 12, NW, Yes,
02/09/2018 01:44, Ice Watch , 14.7 , , 26, -2, 82, -6, 9, 12, NW, Yes,
02/09/2018 01:34, Ice Watch , 14.5 , , 26, -2, 82, -6, 11, 12, NW, Yes,
02/09/2018 01:33, Ice Watch , 14.5 , , 26, -2, 82, -6, 11, 12, NW, Yes,
02/09/2018 01:24, Ice Watch , 14.4 , , 26, -2, 82, -6, 9, 11, N, Yes,
02/09/2018 01:18, Ice Watch , 14.4 , , 26, -2, 82, -6, 9, 11, NW, Yes,
02/09/2018 01:14, Ice Watch , 14.2 , , 26, -1, 82, -6, 9, 11, N, Yes,
02/09/2018 01:04, Ice Watch , 14.2 , , 26, -1, 82, -6, 10, 11, NW, None, None
02/09/2018 01:03, Ice Watch , 14.2 , , 26, -2, 82, -6, 10, 12, NW, Yes,
02/09/2018 00:54, Ice Watch , 14.2 , , 26, -1, 82, -5, 11, 14, NW, Yes,
02/09/2018 00:48, Ice Watch , 14 , , 26, -1, 82, -5, 11, 14, NW, None, None
02/09/2018 00:44, Ice Watch , 14 , , 26, -1, 82, -5, 12, 13, NW, None, None
02/09/2018 00:34, Ice Watch , 14 , , 26, -1, 82, -5, 11, 12, NW, Yes,
02/09/2018 00:33, Ice Watch , 14 , , 26, -1, 82, -5, 11, 12, NW, Yes,
02/09/2018 00:24, Ice Watch , 14 , , 26, -1, 82, -5, 9, 11, NW, Yes,
02/09/2018 00:18, Ice Watch , 13.8 , , 26, -1, 82, -5, 8, 11, NW, Yes,
02/09/2018 00:14, Ice Watch , 13.8 , , 26, -1, 82, -5, 7, 11, NW, Yes,
02/09/2018 00:04, Ice Watch , 13.8 , , 26, -1, 82, -5, 7, 9, NW, Yes,
02/09/2018 00:03, Ice Watch , 13.8 , , 26, -1, 82, -5, 7, 9, NW, Yes,
02/08/2018 23:54, Ice Watch , 13.8 , , 26, -1, 82, -5, 6, 7, NW, Yes,
02/08/2018 23:48, Ice Watch , 13.8 , , 26, -1, 82, -5, 6, 6, NW, None, None
02/08/2018 23:44, Ice Watch , 13.6 , , 26, -1, 82, -5, 6, 7, NW, None, None
02/08/2018 23:34, Ice Watch , 13.6 , , 26, -1, 82, -5, 7, 9, NW, Yes,
02/08/2018 23:33, Ice Watch , 13.6 , , 26, -1, 82, -5, 7, 9, NW, Yes,
02/08/2018 23:24, Ice Watch , 13.6 , , 26, -1, 82, -5, 7, 7, W, Yes,
02/08/2018 23:18, Ice Watch , 13.5 , , 26, -1, 82, -5, 6, 7, W, Yes,
02/08/2018 23:13, Ice Watch , 13.5 , , 26, -1, 82, -5, 6, 7, W, None, None
02/08/2018 23:03, Ice Watch , 13.3 , , 26, 0, 82, -5, 6, 9, NW, Yes,
02/08/2018 23:03, Ice Watch , 13.3 , , 26, 0, 82, -5, 6, 9, NW, Yes,
02/08/2018 22:53, Ice Watch , 13.3 , , 26, 0, 82, -5, 8, 11, NW, Yes,
02/08/2018 22:48, Ice Watch , 13.3 , , 26, 0, 82, -5, 10, 11, NW, None, None
02/08/2018 22:43, Ice Watch , 13.3 , , 26, 0, 82, -4, 8, 10, NW, None, None
02/08/2018 22:33, Ice Watch , 13.3 , , 26, 0, 82, -4, 8, 11, NW, Yes,
02/08/2018 22:33, Ice Watch , 13.3 , , 26, 0, 82, -4, 8, 11, NW, Yes,
02/08/2018 22:23, Ice Watch , 13.3 , , 26, 0, 82, -4, 9, 14, NW, Yes,
02/08/2018 22:18, Ice Watch , 13.3 , , 26, 0, 82, -4, 11, 14, NW, Yes,
02/08/2018 22:13, Ice Watch , 13.3 , , 26, 1, 82, -3, 11, 12, NW, None, None
02/08/2018 22:03, Ice Watch , 13.1 , , 26, 1, 83, -3, 9, 12, NW, Yes,
02/08/2018 22:03, Ice Watch , 13.1 , , 26, 1, 83, -3, 9, 12, NW, Yes,
02/08/2018 21:53, Ice Watch , 13.1 , , 26, 1, 83, -3, 9, 13, NW, Yes,
02/08/2018 21:48, Ice Watch , 13.1 , , 26, 1, 83, -3, 9, 12, NW, Yes,
02/08/2018 21:43, Ice Watch , 12.9 , , 26, 1, 82, -3, 9, 12, NW, Yes,
02/08/2018 21:33, Ice Watch , 12.9 , , 26, 1, 82, -3, 9, 12, NW, Yes,
02/08/2018 21:33, Ice Watch , 12.9 , , 26, 1, 82, -3, 9, 12, NW, Yes,
02/08/2018 21:23, Ice Watch , 12.9 , , 26, 1, 82, -3, 11, 13, NW, Yes,
02/08/2018 21:18, Ice Watch , 12.9 , , 26, 1, 82, -3, 10, 13, NW, Yes,
02/08/2018 21:13, Ice Watch , 12.9 , , 26, 1, 82, -3, 11, 13, NW, Yes,
02/08/2018 21:03, Ice Watch , 12.9 , , 26, 1, 82, -3, 11, 12, NW, Yes,
02/08/2018 21:03, Ice Watch , 12.9 , , 26, 1, 82, -3, 11, 12, NW, Yes,
02/08/2018 20:53, Ice Watch , 12.9 , , 26, 1, 82, -3, 11, 13, NW, Yes,
02/08/2018 20:48, Ice Watch , 12.9 , , 26, 1, 82, -3, 11, 13, NW, Yes,
02/08/2018 20:43, Ice Watch , 12.9 , , 26, 1, 82, -3, 9, 17, NW, Yes,
02/08/2018 20:33, Ice Watch , 12.7 , , 26, 2, 82, -2, 14, 16, NW, Yes,
02/08/2018 20:32, Ice Watch , 12.7 , , 26, 2, 82, -2, 14, 16, NW, Yes,
02/08/2018 20:22, Ice Watch , 12.6 , , 26, 2, 82, -2, 12, 17, NW, Yes,
02/08/2018 20:18, Ice Watch , 12.4 , , 26, 2, 82, -2, 13, 17, NW, Yes,
02/08/2018 20:12, Ice Watch , 12.4 , , 26, 2, 82, -2, 13, 16, NW, Yes,
02/08/2018 20:03, Ice Watch , 12.6 , , 26, 2, 82, -2, 11, 16, NW, Yes,
02/08/2018 20:02, Ice Watch , 12.7 , , 26, 2, 82, -2, 11, 16, NW, Yes,
02/08/2018 19:52, Ice Watch , 12.6 , , 26, 2, 83, -2, 13, 17, NW, Yes,
02/08/2018 19:48, Ice Watch , 12.6 , , 26, 2, 83, -2, 12, 17, NW, Yes,
02/08/2018 19:42, Ice Watch , 12.2 , , 26, 2, 83, -2, 13, 17, NW, Yes,
02/08/2018 19:33, Ice Watch , 12 , , 26, 2, 82, -2, 15, 17, NW, None, None
02/08/2018 19:32, Ice Watch , 11.8 , , 26, 2, 82, -2, 15, 17, NW, None, None
02/08/2018 19:22, Ice Watch , 11.3 , , 26, 2, 83, -1, 14, 17, NW, None, None
02/08/2018 19:18, Ice Watch , 11.3 , , 26, 3, 83, -1, 11, 16, NW, Yes,
02/08/2018 19:12, Ice Watch , 11.1 , , 26, 3, 83, -1, 12, 19, NW, None, None
02/08/2018 19:03, Ice Watch , 11.7 , , 26, 3, 82, -1, 16, 21, NW, Yes,
02/08/2018 19:02, Ice Watch , 11.8 , , 26, 3, 82, -1, 14, 21, NW, Yes,
02/08/2018 18:52, Ice Watch , 11.3 , , 26, 3, 80, -1, 9, 17, N, Yes,
02/08/2018 18:48, Ice Watch , 11.3 , , 26, 4, 80, -1, 11, 17, N, None, None
02/08/2018 18:42, Ice Watch , 11.3 , , 26, 4, 81, -1, 13, 16, NW, None, None
02/08/2018 18:33, Ice Watch , 11.7 , , 26, 4, 81, 0, 13, 19, NW, None, None
02/08/2018 18:32, Ice Watch , 11.5 , , 26, 4, 81, 0, 15, 19, NW, None, None
02/08/2018 18:22, Ice Watch , 11.8 , , 26, 4, 81, 0, 14, 19, NW, None, None
02/08/2018 18:18, Ice Watch , 12.2 , , 26, 5, 81, 0, 14, 17, NW, None, None
Change End Date:

Copyright © 1998-2015 Vaisala, Inc.
All Rights Reserved
Send comments about the data to:
SCAN Web ® is a registered trademark of Vaisala, Inc.
SCAN Web Version 6.0